Terminal Aerodrome Forecast
Issued by NWS

Home | Current Version | Previous Version | Text Only | Print | Product List | Glossary Off
Versions: 1 2 3 4 5 6 7 8 9 10 11 12 13

000
FTUS43 KGRB 200520
TAFAUW
TAF
KAUW 200520Z 2006/2106 VRB03KT P6SM SCT100
     FM200900 VRB03KT 4SM BR SCT009 BKN100
      TEMPO 2010/2014 BKN009
     FM201500 35010KT P6SM BKN100
     FM202200 34003KT P6SM SCT100=

USA.gov is the U.S. government's official web portal to all federal, state and local government web resources and services.